Time;durP1;ratioP1;P1;durP2;ratioP2;P2;SDS_P1;SDS_P2;PMS_P1;PMS_P2;Temp;Humidity;BMP_temperature;BMP_pressure;BME280_temperature;BME280_humidity;BME280_pressure;Samples;Min_cycle;Max_cycle;Signal;HPM_P1;HPM_P2
2022/08/01 00:00:35;;;;;;;;;;;;;;;16.73;54.82;99998.81;5066612;28;19959;-71
2022/08/01 00:03:01;;;;;;;;;;;;;;;16.70;55.17;99994.72;5068622;28;19954;-71
2022/08/01 00:05:27;;;;;;;;;;;;;;;16.71;55.33;100001.09;5068877;28;19928;-70
2022/08/01 00:07:53;;;;;;;;;;;;;;;16.72;55.43;99999.97;5068850;28;19974;-71
2022/08/01 00:10:19;;;;;;;;;;;;;;;16.78;55.41;99995.09;5068415;28;20473;-71
2022/08/01 00:12:46;;;;;;;;;;;;;;;16.75;55.51;99985.53;5065578;28;19928;-71
2022/08/01 00:15:13;;;;;;;;;;;;;;;16.75;55.87;99988.28;5065525;28;20392;-70
2022/08/01 00:17:39;;;;;;;;;;;;;;;16.73;55.74;99985.03;5030775;28;19946;-70
2022/08/01 00:20:06;;;;;;;;;;;;;;;16.75;55.84;99990.22;5045585;28;19935;-71
2022/08/01 00:22:32;;;;;;;;;;;;;;;16.76;56.12;99981.63;5047444;28;19952;-69
2022/08/01 00:24:58;;;;;;;;;;;;;;;16.74;56.30;99983.88;5045667;28;19935;-70
2022/08/01 00:27:24;;;;;;;;;;;;;;;16.69;56.27;99972.94;5045743;28;19928;-69
2022/08/01 00:29:51;;;;;;;;;;;;;;;16.69;56.49;99979.28;5045800;28;19929;-71
2022/08/01 00:32:16;;;;;;;;;;;;;;;16.65;56.49;99980.22;5044100;28;19974;-71
2022/08/01 00:34:42;;;;;;;;;;;;;;;16.62;56.40;99980.84;5044936;28;19928;-71
2022/08/01 00:37:08;;;;;;;;;;;;;;;16.57;56.64;99985.38;5045354;28;20106;-71
2022/08/01 00:39:34;;;;;;;;;;;;;;;16.53;56.37;99986.31;5047453;28;19928;-70
2022/08/01 00:41:59;;;;;;;;;;;;;;;16.51;56.25;99983.03;5046426;28;20314;-71
2022/08/01 00:44:25;;;;;;;;;;;;;;;16.48;56.53;99980.91;5046842;28;19928;-70
2022/08/01 00:46:52;;;;;;;;;;;;;;;16.44;56.64;99986.22;5047909;28;20319;-70
2022/08/01 00:49:18;;;;;;;;;;;;;;;16.42;56.62;99981.00;5048752;28;19948;-71
2022/08/01 00:51:44;;;;;;;;;;;;;;;16.39;56.97;99987.16;5049234;28;19935;-71
2022/08/01 00:54:09;;;;;;;;;;;;;;;16.40;56.86;99987.97;5040633;28;19951;-70
2022/08/01 00:56:35;;;;;;;;;;;;;;;16.38;56.69;99982.75;5027106;28;19929;-71
2022/08/01 00:59:03;;;;;;;;;;;;;;;16.37;57.07;99989.41;5027837;28;19975;-71
2022/08/01 01:01:29;;;;;;;;;;;;;;;16.39;56.95;99989.06;5026313;28;19971;-71
2022/08/01 01:03:56;;;;;;;;;;;;;;;16.38;56.68;99987.44;5028498;28;19964;-71
2022/08/01 01:06:30;;;;;;;;;;;;;;;16.37;56.57;99983.06;5047593;28;19975;-71
2022/08/01 01:09:13;;;;;;;;;;;;;;;16.31;56.80;99982.34;5047219;28;19933;-71
2022/08/01 01:11:44;;;;;;;;;;;;;;;16.24;56.79;99982.78;5048413;28;19929;-70
2022/08/01 01:14:13;;;;;;;;;;;;;;;16.23;56.82;99978.38;5045584;28;19982;-71
2022/08/01 01:16:40;;;;;;;;;;;;;;;16.26;56.65;99986.06;5045056;28;19929;-70
2022/08/01 01:19:11;;;;;;;;;;;;;;;16.26;56.67;99979.69;5047203;28;19971;-71
2022/08/01 01:21:54;;;;;;;;;;;;;;;16.26;56.85;99975.00;5066663;28;19938;-72
2022/08/01 01:24:27;;;;;;;;;;;;;;;16.26;56.89;99974.19;5049176;28;19929;-70
2022/08/01 01:26:57;;;;;;;;;;;;;;;16.25;56.68;99975.31;5064142;28;20023;-70
2022/08/01 01:29:27;;;;;;;;;;;;;;;16.21;56.73;99977.06;5065494;28;20395;-69
2022/08/01 01:31:55;;;;;;;;;;;;;;;16.17;56.82;99976.84;5068418;28;20414;-71
2022/08/01 01:34:22;;;;;;;;;;;;;;;16.17;56.85;99976.84;5067002;28;20292;-71
2022/08/01 01:36:49;;;;;;;;;;;;;;;16.15;57.28;99971.63;5064818;28;19956;-70
2022/08/01 01:39:15;;;;;;;;;;;;;;;16.15;57.22;99977.16;5049422;28;19928;-70
2022/08/01 01:41:42;;;;;;;;;;;;;;;16.16;57.65;99975.22;5067558;28;19928;-70
2022/08/01 01:44:09;;;;;;;;;;;;;;;16.14;57.79;99975.53;5070052;28;20351;-69
2022/08/01 01:46:36;;;;;;;;;;;;;;;16.19;57.92;99976.56;5044590;28;20031;-70
2022/08/01 01:49:03;;;;;;;;;;;;;;;16.23;57.70;99974.81;5027755;28;19959;-70
2022/08/01 01:51:29;;;;;;;;;;;;;;;16.26;57.45;99977.78;5029721;28;19928;-71
2022/08/01 01:53:55;;;;;;;;;;;;;;;16.23;57.94;99974.81;5047763;28;19936;-70
2022/08/01 01:56:21;;;;;;;;;;;;;;;16.18;57.87;99972.97;5027880;28;19955;-70
2022/08/01 01:58:50;;;;;;;;;;;;;;;16.17;57.65;99976.84;5046787;28;19928;-70
2022/08/01 02:01:17;;;;;;;;;;;;;;;16.13;57.98;99970.31;5046928;28;20031;-71
2022/08/01 02:03:44;;;;;;;;;;;;;;;16.08;57.98;99967.66;5012388;28;19935;-70
2022/08/01 02:06:11;;;;;;;;;;;;;;;16.11;58.06;99978.91;5047470;28;19929;-71
2022/08/01 02:08:40;;;;;;;;;;;;;;;16.14;58.08;99981.03;5051365;28;20418;-70
2022/08/01 02:11:18;;;;;;;;;;;;;;;16.11;58.07;99978.91;5031695;28;19928;-71
2022/08/01 02:13:44;;;;;;;;;;;;;;;16.11;58.02;99983.63;5030602;28;19964;-71
2022/08/01 02:16:11;;;;;;;;;;;;;;;16.13;58.09;99979.41;5051984;28;20012;-71
2022/08/01 02:18:38;;;;;;;;;;;;;;;16.22;58.27;99975.94;5032222;28;19940;-70
2022/08/01 02:21:08;;;;;;;;;;;;;;;16.23;57.77;99983.09;5028632;28;19936;-71
2022/08/01 02:23:34;;;;;;;;;;;;;;;16.24;57.60;99976.44;5032465;28;19929;-70
2022/08/01 02:26:01;;;;;;;;;;;;;;;16.26;57.47;99976.94;5030297;28;19929;-70
2022/08/01 02:28:30;;;;;;;;;;;;;;;16.25;57.53;99978.91;5028393;28;19987;-70
2022/08/01 02:30:59;;;;;;;;;;;;;;;16.25;57.68;99976.13;5010784;28;19933;-71
2022/08/01 02:33:27;;;;;;;;;;;;;;;16.23;57.38;99980.31;5024555;28;19936;-70
2022/08/01 02:35:56;;;;;;;;;;;;;;;16.26;57.21;99965.91;5028492;28;20013;-70
2022/08/01 02:38:25;;;;;;;;;;;;;;;16.30;57.18;99976.03;5029423;28;19929;-70
2022/08/01 02:40:52;;;;;;;;;;;;;;;16.35;57.01;99975.09;5029162;28;20419;-73
2022/08/01 02:43:20;;;;;;;;;;;;;;;16.40;56.92;99979.69;5031899;28;19975;-69
2022/08/01 02:45:49;;;;;;;;;;;;;;;16.43;56.77;99988.16;5030303;28;19933;-69
2022/08/01 02:48:16;;;;;;;;;;;;;;;16.47;57.04;99977.31;5034297;28;19929;-69
2022/08/01 02:50:43;;;;;;;;;;;;;;;16.49;56.88;99975.06;5030225;28;19936;-69
2022/08/01 02:53:11;;;;;;;;;;;;;;;16.52;56.88;99979.16;5029820;28;20028;-71
2022/08/01 02:55:38;;;;;;;;;;;;;;;16.57;56.87;99985.38;5030100;28;19939;-71
2022/08/01 02:58:04;;;;;;;;;;;;;;;16.60;56.93;99972.88;5030759;28;19975;-70
2022/08/01 03:00:31;;;;;;;;;;;;;;;16.63;57.08;99986.06;5027437;28;20028;-71
2022/08/01 03:02:57;;;;;;;;;;;;;;;16.65;56.64;99981.06;5029154;28;20375;-71
2022/08/01 03:05:24;;;;;;;;;;;;;;;16.67;56.82;99978.78;5029797;28;19982;-71
2022/08/01 03:07:51;;;;;;;;;;;;;;;16.69;56.62;99982.06;5029362;28;19929;-71
2022/08/01 03:10:17;;;;;;;;;;;;;;;16.71;56.36;99988.09;5030579;28;19937;-71
2022/08/01 03:12:46;;;;;;;;;;;;;;;16.72;56.32;99986.16;5030459;28;19929;-70
2022/08/01 03:15:11;;;;;;;;;;;;;;;16.76;56.55;99989.09;5012695;28;19979;-71
2022/08/01 03:17:39;;;;;;;;;;;;;;;16.78;56.71;99984.88;5027921;28;19929;-71
2022/08/01 03:20:06;;;;;;;;;;;;;;;16.82;56.51;99979.56;5044457;28;19971;-69
2022/08/01 03:22:34;;;;;;;;;;;;;;;16.85;56.66;99982.50;5069549;28;20314;-71
2022/08/01 03:25:01;;;;;;;;;;;;;;;16.91;56.35;99979.63;5052997;28;19951;-70
2022/08/01 03:27:30;;;;;;;;;;;;;;;16.94;56.55;99981.75;5051345;28;19951;-70
2022/08/01 03:29:58;;;;;;;;;;;;;;;16.98;56.20;99980.00;5050500;28;19936;-70
2022/08/01 03:32:25;;;;;;;;;;;;;;;17.02;56.33;99983.81;5069841;28;19971;-71
2022/08/01 03:34:51;;;;;;;;;;;;;;;17.06;56.59;99979.28;5070303;28;19935;-70
2022/08/01 03:37:21;;;;;;;;;;;;;;;17.10;56.21;99976.72;5052296;28;19932;-69
2022/08/01 03:39:50;;;;;;;;;;;;;;;17.14;56.24;99975.75;5068744;28;20479;-70
2022/08/01 03:42:17;;;;;;;;;;;;;;;17.20;56.29;99975.66;5049950;28;19982;-69
2022/08/01 03:44:46;;;;;;;;;;;;;;;17.25;56.22;99986.56;5070842;28;19940;-70
2022/08/01 03:47:16;;;;;;;;;;;;;;;17.28;56.06;99977.63;5066611;28;19958;-71
2022/08/01 03:49:43;;;;;;;;;;;;;;;17.35;56.24;99978.00;5068659;28;19928;-71
2022/08/01 03:52:09;;;;;;;;;;;;;;;17.44;56.09;99978.06;5050271;28;19928;-71
2022/08/01 03:54:36;;;;;;;;;;;;;;;17.49;55.67;99972.38;5066361;28;20352;-70
2022/08/01 03:57:02;;;;;;;;;;;;;;;17.59;55.64;99974.06;5034757;28;19928;-71
2022/08/01 03:59:29;;;;;;;;;;;;;;;17.66;55.43;99971.66;5050699;28;19978;-69
2022/08/01 04:01:55;;;;;;;;;;;;;;;17.73;55.31;99968.44;5065643;28;19928;-71
2022/08/01 04:04:22;;;;;;;;;;;;;;;17.83;55.07;99979.19;5049934;28;20406;-71
2022/08/01 04:06:53;;;;;;;;;;;;;;;17.91;55.23;99985.09;5069218;28;20027;-71
2022/08/01 04:09:19;;;;;;;;;;;;;;;17.99;54.90;99968.53;5051275;28;20446;-71
2022/08/01 04:11:45;;;;;;;;;;;;;;;18.04;54.40;99967.59;5069752;28;19928;-70
2022/08/01 04:14:11;;;;;;;;;;;;;;;18.10;54.03;99966.31;5049399;28;19935;-71
2022/08/01 04:16:37;;;;;;;;;;;;;;;18.14;54.01;99960.94;5067421;28;19936;-71
2022/08/01 04:19:02;;;;;;;;;;;;;;;18.20;53.66;99970.72;5049391;28;20417;-71
2022/08/01 04:21:32;;;;;;;;;;;;;;;18.25;53.41;99964.22;5068355;28;19928;-70
2022/08/01 04:24:00;;;;;;;;;;;;;;;18.35;53.09;99968.63;5008468;28;20035;-71
2022/08/01 04:26:27;;;;;;;;;;;;;;;18.39;52.69;99967.66;5047997;28;20292;-72
2022/08/01 04:28:54;;;;;;;;;;;;;;;18.46;52.63;99972.72;5048225;28;19936;-70
2022/08/01 04:31:20;;;;;;;;;;;;;;;18.53;52.67;99969.47;5029784;28;20023;-71
2022/08/01 04:33:49;;;;;;;;;;;;;;;18.61;52.23;99973.38;5048925;28;19987;-71
2022/08/01 04:36:17;;;;;;;;;;;;;;;18.54;51.59;99960.03;5028574;28;19935;-70
2022/08/01 04:38:45;;;;;;;;;;;;;;;18.70;51.41;99976.97;5030445;28;19929;-71
2022/08/01 04:41:12;;;;;;;;;;;;;;;18.76;51.10;99975.66;5030529;28;19947;-71
2022/08/01 04:43:38;;;;;;;;;;;;;;;18.82;50.85;99966.03;5030530;28;19955;-71
2022/08/01 04:46:05;;;;;;;;;;;;;;;18.90;50.24;99972.72;5014759;28;20400;-71
2022/08/01 04:48:31;;;;;;;;;;;;;;;18.98;49.97;99977.44;5069797;28;19928;-70
2022/08/01 04:50:57;;;;;;;;;;;;;;;19.07;49.96;99973.88;5066839;28;20034;-71
2022/08/01 04:53:23;;;;;;;;;;;;;;;19.13;50.01;99975.34;5048989;28;20391;-71
2022/08/01 04:55:50;;;;;;;;;;;;;;;19.24;49.49;99979.38;5043594;28;20425;-71
2022/08/01 04:58:16;;;;;;;;;;;;;;;19.38;49.03;99978.38;5029403;28;19929;-70
2022/08/01 05:00:42;;;;;;;;;;;;;;;19.48;49.01;99980.81;5047993;28;19962;-70
2022/08/01 05:03:08;;;;;;;;;;;;;;;19.55;48.55;99975.53;5027748;28;19974;-70
2022/08/01 05:05:34;;;;;;;;;;;;;;;19.63;48.58;99979.44;5030501;28;19928;-71
2022/08/01 05:08:00;;;;;;;;;;;;;;;19.72;48.18;99982.16;5048486;28;19978;-71
2022/08/01 05:10:26;;;;;;;;;;;;;;;19.83;48.09;99990.97;5031973;28;20059;-70
2022/08/01 05:12:54;;;;;;;;;;;;;;;19.91;47.80;99992.88;5028459;28;19955;-68
2022/08/01 05:15:20;;;;;;;;;;;;;;;19.97;47.66;99982.44;5029580;28;19929;-66
2022/08/01 05:17:46;;;;;;;;;;;;;;;20.02;47.03;99985.00;5030621;28;19935;-67
2022/08/01 05:20:12;;;;;;;;;;;;;;;20.06;47.07;99976.84;5047485;28;19929;-67
2022/08/01 05:22:38;;;;;;;;;;;;;;;20.12;47.15;99981.88;5029918;28;19983;-67
2022/08/01 05:25:07;;;;;;;;;;;;;;;20.18;46.61;99974.16;5049306;28;19967;-66
2022/08/01 05:27:39;;;;;;;;;;;;;;;20.23;46.64;99978.72;5064119;28;19982;-68
2022/08/01 05:30:08;;;;;;;;;;;;;;;20.34;46.45;99979.91;5048450;28;19928;-67
2022/08/01 05:32:33;;;;;;;;;;;;;;;20.45;45.99;99977.59;5046420;28;19975;-67
2022/08/01 05:34:59;;;;;;;;;;;;;;;20.54;45.48;99969.97;5047754;28;20335;-67
2022/08/01 05:37:25;;;;;;;;;;;;;;;20.56;45.73;99972.44;5046662;28;19975;-66
2022/08/01 05:39:51;;;;;;;;;;;;;;;20.57;44.77;99971.28;5046045;28;19928;-67
2022/08/01 05:42:18;;;;;;;;;;;;;;;20.61;45.03;99974.22;5068018;28;19968;-67
2022/08/01 05:44:44;;;;;;;;;;;;;;;20.68;44.60;99971.69;5036818;28;19934;-70
2022/08/01 05:47:12;;;;;;;;;;;;;;;20.74;44.15;99967.53;5057831;28;19981;-70
2022/08/01 05:49:38;;;;;;;;;;;;;;;20.83;44.11;99968.31;5042423;28;19929;-70
2022/08/01 05:52:04;;;;;;;;;;;;;;;20.91;43.65;99974.13;5071988;28;19928;-70
2022/08/01 05:54:30;;;;;;;;;;;;;;;20.92;43.61;99975.78;5058155;28;19931;-70
2022/08/01 05:56:59;;;;;;;;;;;;;;;20.93;43.33;99963.50;5045660;28;19990;-70
2022/08/01 05:59:25;;;;;;;;;;;;;;;21.00;43.18;99965.72;5057071;28;20031;-70
2022/08/01 06:01:50;;;;;;;;;;;;;;;21.03;43.09;99971.41;5060540;28;20035;-71
2022/08/01 06:04:17;;;;;;;;;;;;;;;21.09;43.38;99963.66;5054071;28;19952;-71
2022/08/01 06:06:43;;;;;;;;;;;;;;;21.18;43.38;99966.34;5052936;28;19935;-70
2022/08/01 06:09:09;;;;;;;;;;;;;;;21.30;43.29;99963.59;5052094;28;20027;-71
2022/08/01 06:11:35;;;;;;;;;;;;;;;21.34;42.63;99970.09;5053662;28;19928;-70
2022/08/01 06:14:01;;;;;;;;;;;;;;;21.49;42.71;99973.38;5035596;28;19929;-71
2022/08/01 06:16:27;;;;;;;;;;;;;;;21.72;42.13;99970.22;5049932;28;19955;-70
2022/08/01 06:18:52;;;;;;;;;;;;;;;21.98;41.56;99971.81;5023224;28;19929;-71
2022/08/01 06:21:20;;;;;;;;;;;;;;;22.14;41.20;99969.94;5038006;28;20032;-72
2022/08/01 06:23:45;;;;;;;;;;;;;;;22.34;40.69;99975.75;5041922;28;20031;-71
2022/08/01 06:26:11;;;;;;;;;;;;;;;22.41;40.13;99961.22;5038436;28;20020;-71
2022/08/01 06:28:38;;;;;;;;;;;;;;;22.48;39.66;99969.81;5018340;28;19961;-71
2022/08/01 06:31:03;;;;;;;;;;;;;;;22.61;39.41;99970.59;5034438;28;19929;-71
2022/08/01 06:33:29;;;;;;;;;;;;;;;22.73;39.44;99972.56;5058995;28;19935;-71
2022/08/01 06:35:55;;;;;;;;;;;;;;;22.80;39.68;99981.09;5061523;28;20462;-71
2022/08/01 06:38:24;;;;;;;;;;;;;;;22.93;38.93;99977.13;5059651;28;20027;-72
2022/08/01 06:40:49;;;;;;;;;;;;;;;22.98;39.08;99976.06;5062761;28;19929;-72
2022/08/01 06:43:15;;;;;;;;;;;;;;;23.10;39.18;99972.38;5046528;28;19928;-72
2022/08/01 06:45:41;;;;;;;;;;;;;;;23.23;39.09;99979.53;5065378;28;19935;-66
2022/08/01 06:48:07;;;;;;;;;;;;;;;23.39;38.79;99977.94;5060486;28;20490;-68
2022/08/01 06:50:33;;;;;;;;;;;;;;;23.45;39.12;99985.69;5059601;28;19968;-67
2022/08/01 06:52:58;;;;;;;;;;;;;;;23.52;38.95;99976.72;5041671;28;20031;-68
2022/08/01 06:55:28;;;;;;;;;;;;;;;23.59;38.70;99982.50;5060127;28;19928;-68
2022/08/01 06:57:54;;;;;;;;;;;;;;;23.74;38.38;99978.06;4999351;28;19964;-67
2022/08/01 07:00:24;;;;;;;;;;;;;;;23.84;38.37;99989.88;5059025;28;19959;-67
2022/08/01 07:02:51;;;;;;;;;;;;;;;23.89;38.27;99989.59;5052845;28;19935;-67
2022/08/01 07:05:17;;;;;;;;;;;;;;;23.93;37.75;99984.91;5058425;28;19978;-66
2022/08/01 07:07:43;;;;;;;;;;;;;;;24.08;37.37;99988.88;5059822;28;19929;-67
2022/08/01 07:10:09;;;;;;;;;;;;;;;24.28;37.18;99988.94;5039671;28;19928;-70
2022/08/01 07:12:37;;;;;;;;;;;;;;;24.28;37.11;99989.75;5055686;28;19928;-70
2022/08/01 07:15:04;;;;;;;;;;;;;;;24.26;37.38;99988.50;5059912;28;19974;-71
2022/08/01 07:17:30;;;;;;;;;;;;;;;24.47;37.08;99991.75;5055167;28;19928;-71
2022/08/01 07:19:55;;;;;;;;;;;;;;;24.59;36.56;99999.22;5061529;28;19932;-72
2022/08/01 07:22:21;;;;;;;;;;;;;;;24.51;35.90;99991.84;5061157;28;19933;-71
2022/08/01 07:24:47;;;;;;;;;;;;;;;24.46;35.90;99998.53;5057592;28;19929;-70
2022/08/01 07:27:12;;;;;;;;;;;;;;;24.41;36.05;99993.22;5066753;28;19928;-70
2022/08/01 07:29:39;;;;;;;;;;;;;;;24.31;35.92;99989.03;5065607;28;20018;-70
2022/08/01 07:32:05;;;;;;;;;;;;;;;24.43;36.04;99979.69;5047992;28;19935;-71
2022/08/01 07:34:31;;;;;;;;;;;;;;;24.60;35.31;99989.66;5044586;28;20457;-67
2022/08/01 07:36:57;;;;;;;;;;;;;;;24.58;35.25;99983.59;5067550;28;20096;-68
2022/08/01 07:39:23;;;;;;;;;;;;;;;24.50;35.00;99976.25;5066327;28;19928;-67
2022/08/01 07:41:48;;;;;;;;;;;;;;;24.45;34.74;99980.16;5061365;28;19951;-67
2022/08/01 07:44:14;;;;;;;;;;;;;;;24.47;34.78;99982.59;5058574;28;19935;-67
2022/08/01 07:46:41;;;;;;;;;;;;;;;24.56;34.14;99987.97;5042411;28;19928;-68
2022/08/01 07:49:07;;;;;;;;;;;;;;;24.56;33.82;99974.78;5059906;28;20530;-71
2022/08/01 07:51:33;;;;;;;;;;;;;;;24.47;34.03;99991.75;5063640;28;19929;-67
2022/08/01 07:53:59;;;;;;;;;;;;;;;24.41;34.54;99984.03;5055739;28;20027;-67
2022/08/01 07:56:26;;;;;;;;;;;;;;;24.67;34.02;99977.84;5048543;28;19947;-67
2022/08/01 07:58:51;;;;;;;;;;;;;;;24.85;33.91;99983.00;5060053;28;19968;-67
2022/08/01 08:01:18;;;;;;;;;;;;;;;24.89;33.73;99983.88;5041223;28;19952;-68
2022/08/01 08:03:45;;;;;;;;;;;;;;;24.85;33.65;99983.00;5055630;28;19929;-66
2022/08/01 08:06:11;;;;;;;;;;;;;;;24.94;33.05;99972.41;5065806;28;19968;-67
2022/08/01 08:08:36;;;;;;;;;;;;;;;25.12;32.60;99989.53;5047983;28;20017;-66
2022/08/01 08:11:02;;;;;;;;;;;;;;;25.17;32.78;99972.44;5064930;28;19935;-72
2022/08/01 08:13:28;;;;;;;;;;;;;;;25.34;32.58;99982.38;5031135;28;19967;-72
2022/08/01 08:15:54;;;;;;;;;;;;;;;25.49;32.39;99975.06;5041968;28;19928;-67
2022/08/01 08:18:19;;;;;;;;;;;;;;;25.51;32.15;99968.28;5064224;28;20023;-67
2022/08/01 08:20:46;;;;;;;;;;;;;;;25.65;32.27;99973.34;5048659;28;19928;-66
2022/08/01 08:25:56;;;;;;;;;;;;;;;26.22;30.70;99975.44;5064080;28;20425;-70
2022/08/01 08:28:22;;;;;;;;;;;;;;;26.36;31.08;99986.84;5053798;28;19928;-67
2022/08/01 08:30:48;;;;;;;;;;;;;;;26.81;30.62;99972.22;5054371;28;20387;-67
2022/08/01 08:33:14;;;;;;;;;;;;;;;26.98;30.19;99984.88;5039097;28;20358;-68
2022/08/01 08:35:40;;;;;;;;;;;;;;;27.13;30.48;99972.63;5026179;28;19935;-68
2022/08/01 08:38:07;;;;;;;;;;;;;;;27.16;30.49;99969.06;5061806;28;20395;-70
2022/08/01 08:40:35;;;;;;;;;;;;;;;27.64;30.10;99961.91;5066631;28;19928;-71
2022/08/01 08:43:01;;;;;;;;;;;;;;;28.34;29.49;99964.03;5063029;28;19928;-72
2022/08/01 08:45:27;;;;;;;;;;;;;;;28.84;28.40;99954.25;5049563;28;19935;-70
2022/08/01 08:47:54;;;;;;;;;;;;;;;28.51;28.34;99958.91;5041953;28;19928;-73
2022/08/01 08:50:20;;;;;;;;;;;;;;;28.41;28.63;99958.47;5042036;28;19928;-71
2022/08/01 08:52:47;;;;;;;;;;;;;;;28.33;28.57;99955.97;5062356;28;20532;-71
2022/08/01 08:55:15;;;;;;;;;;;;;;;28.56;28.16;99955.69;5063081;28;19928;-70
2022/08/01 08:57:43;;;;;;;;;;;;;;;28.82;27.12;99954.66;5053813;28;19932;-70
2022/08/01 09:00:10;;;;;;;;;;;;;;;29.03;26.72;99947.47;5065252;28;19932;-70
2022/08/01 09:02:36;;;;;;;;;;;;;;;29.25;26.51;99947.50;5063937;28;20507;-67
2022/08/01 09:05:02;;;;;;;;;;;;;;;29.25;26.82;99945.50;5046617;28;19928;-69
2022/08/01 09:07:30;;;;;;;;;;;;;;;29.52;25.90;99944.34;5063218;28;20314;-68
2022/08/01 09:09:56;;;;;;;;;;;;;;;29.64;25.95;99945.94;5045435;28;20311;-66
2022/08/01 09:12:23;;;;;;;;;;;;;;;30.16;25.65;99951.16;5051640;28;19939;-67
2022/08/01 09:14:50;;;;;;;;;;;;;;;30.48;24.69;99949.47;5061987;28;20019;-67
2022/08/01 09:17:16;;;;;;;;;;;;;;;30.00;24.76;99943.91;5060395;28;20027;-67
2022/08/01 09:19:43;;;;;;;;;;;;;;;29.92;25.12;99947.97;5041011;28;19937;-66
2022/08/01 09:22:09;;;;;;;;;;;;;;;30.75;23.84;99940.50;5064924;28;19933;-67
2022/08/01 09:24:35;;;;;;;;;;;;;;;31.86;22.92;99932.50;5058572;28;19958;-66
2022/08/01 09:27:14;;;;;;;;;;;;;;;32.15;21.86;99937.88;5062512;28;19928;-68
2022/08/01 09:29:41;;;;;;;;;;;;;;;31.91;22.11;99939.72;5069678;28;19935;-71
2022/08/01 09:32:07;;;;;;;;;;;;;;;32.07;21.93;99936.31;5055147;28;19974;-71
2022/08/01 09:34:33;;;;;;;;;;;;;;;32.49;22.09;99939.13;5054570;28;19932;-70
2022/08/01 09:37:00;;;;;;;;;;;;;;;32.79;21.87;99931.88;5040996;28;19964;-72
2022/08/01 09:39:27;;;;;;;;;;;;;;;31.96;22.28;99936.44;5052789;28;20413;-66
2022/08/01 09:41:53;;;;;;;;;;;;;;;30.14;23.49;99936.66;5062510;28;19948;-67
2022/08/01 09:44:35;;;;;;;;;;;;;;;28.77;25.44;99937.31;5062475;28;20413;-67
2022/08/01 09:47:02;;;;;;;;;;;;;;;28.24;26.16;99928.22;5065807;28;19956;-66
2022/08/01 09:49:29;;;;;;;;;;;;;;;28.01;26.30;99937.72;5065539;28;19932;-67
2022/08/01 09:51:56;;;;;;;;;;;;;;;28.48;25.88;99932.38;5052196;28;19928;-67
2022/08/01 09:54:29;;;;;;;;;;;;;;;29.12;25.11;99918.94;5053952;28;19929;-67
2022/08/01 09:57:06;;;;;;;;;;;;;;;30.68;22.90;99932.91;5062408;28;20399;-68
2022/08/01 09:59:34;;;;;;;;;;;;;;;31.71;21.57;99916.88;5060264;28;20403;-67
2022/08/01 10:01:59;;;;;;;;;;;;;;;30.98;21.91;99926.69;5052594;28;19935;-67
2022/08/01 10:04:27;;;;;;;;;;;;;;;29.63;23.65;99927.44;5055297;28;19928;-67
2022/08/01 10:07:02;;;;;;;;;;;;;;;28.63;25.05;99922.00;5040806;28;19974;-67
2022/08/01 10:09:29;;;;;;;;;;;;;;;28.46;25.64;99915.09;5064053;28;19928;-68
2022/08/01 10:11:55;;;;;;;;;;;;;;;28.59;25.80;99912.75;5056886;28;19936;-67
2022/08/01 10:14:22;;;;;;;;;;;;;;;28.67;25.67;99911.56;5026005;28;19932;-65
2022/08/01 10:16:49;;;;;;;;;;;;;;;28.69;25.74;99914.00;5062766;28;19975;-67
2022/08/01 10:19:15;;;;;;;;;;;;;;;30.05;24.66;99913.72;5048521;28;20407;-67
2022/08/01 10:21:44;;;;;;;;;;;;;;;32.37;22.30;99912.19;5071795;28;19954;-66
2022/08/01 10:24:10;;;;;;;;;;;;;;;34.39;19.75;99909.41;5063628;28;19928;-68
2022/08/01 10:26:37;;;;;;;;;;;;;;;35.17;18.27;99911.78;5066989;28;20409;-68
2022/08/01 10:29:03;;;;;;;;;;;;;;;34.87;18.91;99913.66;5046667;28;20031;-67
2022/08/01 10:31:32;;;;;;;;;;;;;;;34.80;19.33;99905.28;5045223;28;19928;-71
2022/08/01 10:33:58;;;;;;;;;;;;;;;35.12;18.87;99909.44;5032561;28;19939;-70
2022/08/01 10:36:25;;;;;;;;;;;;;;;34.28;19.26;99912.47;5069355;28;19928;-71
2022/08/01 10:38:52;;;;;;;;;;;;;;;32.62;21.13;99911.06;5052503;28;19934;-72
2022/08/01 10:41:18;;;;;;;;;;;;;;;31.35;22.49;99912.34;5061614;28;19974;-71
2022/08/01 10:43:44;;;;;;;;;;;;;;;30.38;23.60;99912.44;5065129;28;19929;-70
2022/08/01 10:46:10;;;;;;;;;;;;;;;29.72;24.27;99911.75;5067929;28;19935;-72
2022/08/01 10:48:40;;;;;;;;;;;;;;;29.38;24.76;99903.69;5051357;28;19998;-70
2022/08/01 10:51:06;;;;;;;;;;;;;;;29.36;24.79;99910.94;5051803;28;19928;-71
2022/08/01 10:53:32;;;;;;;;;;;;;;;30.11;24.09;99907.28;5069498;28;19982;-71
2022/08/01 10:56:01;;;;;;;;;;;;;;;30.00;23.50;99906.47;5051520;28;19928;-71
2022/08/01 10:58:37;;;;;;;;;;;;;;;29.36;24.51;99905.31;5043347;28;20415;-70
2022/08/01 11:01:27;;;;;;;;;;;;;;;28.73;25.30;99903.53;5063341;28;19935;-70
2022/08/01 11:03:57;;;;;;;;;;;;;;;28.15;26.25;99897.66;5037256;28;19991;-71
2022/08/01 11:06:25;;;;;;;;;;;;;;;27.80;26.94;99901.84;5070090;28;19929;-71
2022/08/01 11:08:52;;;;;;;;;;;;;;;28.77;25.91;99897.94;5068718;28;20407;-70
2022/08/01 11:11:20;;;;;;;;;;;;;;;29.06;25.43;99892.41;5070197;28;19928;-71
2022/08/01 11:14:06;;;;;;;;;;;;;;;28.71;25.87;99895.50;5061660;28;19928;-71
2022/08/01 11:16:33;;;;;;;;;;;;;;;28.39;26.42;99896.19;5035704;28;19928;-70
2022/08/01 11:18:58;;;;;;;;;;;;;;;29.54;25.38;99894.88;5068007;28;20391;-71
2022/08/01 11:21:39;;;;;;;;;;;;;;;31.54;23.00;99892.03;5067602;28;19932;-72
2022/08/01 11:24:05;;;;;;;;;;;;;;;32.04;22.46;99892.75;5062679;28;20034;-71
2022/08/01 11:26:33;;;;;;;;;;;;;;;30.85;23.19;99883.22;5019936;28;19929;-66
2022/08/01 11:29:16;;;;;;;;;;;;;;;29.71;24.53;99886.81;5063683;28;20234;-68
2022/08/01 11:31:42;;;;;;;;;;;;;;;29.51;25.30;99872.34;5041671;28;19935;-67
2022/08/01 11:34:07;;;;;;;;;;;;;;;31.83;22.89;99876.84;5068457;28;20041;-68
2022/08/01 11:36:33;;;;;;;;;;;;;;;33.69;20.79;99877.94;5042919;28;19928;-67
2022/08/01 11:39:15;;;;;;;;;;;;;;;33.04;20.59;99874.13;5060031;28;19944;-68
2022/08/01 11:41:44;;;;;;;;;;;;;;;31.37;22.94;99874.00;5063665;28;19990;-67
2022/08/01 11:44:10;;;;;;;;;;;;;;;30.27;23.85;99875.00;5030829;28;19936;-67
2022/08/01 11:46:52;;;;;;;;;;;;;;;29.18;24.93;99871.50;5047005;28;19928;-67
2022/08/01 11:49:22;;;;;;;;;;;;;;;28.43;25.83;99874.53;5059906;28;20318;-67
2022/08/01 11:51:48;;;;;;;;;;;;;;;28.03;26.49;99876.31;5060279;28;19986;-67
2022/08/01 11:54:15;;;;;;;;;;;;;;;28.05;26.34;99867.50;5048700;28;20421;-67
2022/08/01 11:56:40;;;;;;;;;;;;;;;28.26;26.03;99864.03;5035335;28;19929;-67
2022/08/01 11:59:08;;;;;;;;;;;;;;;28.32;26.33;99868.06;5060132;28;19943;-68
2022/08/01 12:01:33;;;;;;;;;;;;;;;29.23;25.59;99868.28;5060025;28;19929;-67
2022/08/01 12:03:59;;;;;;;;;;;;;;;29.98;24.79;99863.81;5059973;28;19936;-68
2022/08/01 12:06:28;;;;;;;;;;;;;;;29.72;24.71;99857.44;5032034;28;20539;-67
2022/08/01 12:08:54;;;;;;;;;;;;;;;29.15;25.17;99859.03;5026393;28;19928;-71
2022/08/01 12:11:20;;;;;;;;;;;;;;;28.54;25.73;99857.69;5059910;28;19929;-71
2022/08/01 12:13:47;;;;;;;;;;;;;;;28.09;26.20;99846.63;5056235;28;19928;-66
2022/08/01 12:16:14;;;;;;;;;;;;;;;28.06;26.48;99861.47;5057073;28;20350;-67
2022/08/01 12:18:41;;;;;;;;;;;;;;;28.18;26.15;99854.75;5054138;28;20414;-71
2022/08/01 12:21:07;;;;;;;;;;;;;;;28.21;26.26;99856.78;5026444;28;19935;-70
2022/08/01 12:23:33;;;;;;;;;;;;;;;28.20;26.33;99860.78;5059993;28;19928;-71
2022/08/01 12:26:00;;;;;;;;;;;;;;;28.77;25.66;99852.94;5063192;28;19932;-68
2022/08/01 12:28:26;;;;;;;;;;;;;;;28.73;25.61;99856.56;5032032;28;20474;-67
2022/08/01 12:30:51;;;;;;;;;;;;;;;28.71;25.65;99853.31;5058971;28;19928;-68
2022/08/01 12:33:19;;;;;;;;;;;;;;;28.64;25.95;99846.88;5054148;28;20441;-68
2022/08/01 12:35:45;;;;;;;;;;;;;;;28.71;25.89;99855.34;5038088;28;20399;-67
2022/08/01 12:38:13;;;;;;;;;;;;;;;29.13;25.67;99850.19;5041763;28;19947;-67
2022/08/01 12:40:41;;;;;;;;;;;;;;;28.96;26.01;99851.81;5042346;28;20427;-67
2022/08/01 12:43:07;;;;;;;;;;;;;;;28.56;25.90;99844.03;5057780;28;20358;-70
2022/08/01 12:45:34;;;;;;;;;;;;;;;28.05;26.47;99840.19;5067029;28;19950;-71
2022/08/01 12:48:00;;;;;;;;;;;;;;;27.78;27.02;99845.28;5047100;28;19928;-72
2022/08/01 12:50:29;;;;;;;;;;;;;;;27.60;27.46;99840.34;5042593;28;19935;-71